Time;durP1;ratioP1;P1;durP2;ratioP2;P2;SDS_P1;SDS_P2;PMS_P1;PMS_P2;Temp;Humidity;BMP_temperature;BMP_pressure;BME280_temperature;BME280_humidity;BME280_pressure;Samples;Min_cycle;Max_cycle;Signal;HPM_P1;HPM_P2
2024/04/19 00:01:33;;;;;;;2.90;2.20;;;4.80;99.90;;;5.68;100.00;98260.69;5493367;26;20569;-73
2024/04/19 00:04:04;;;;;;;3.67;1.57;;;4.80;99.90;;;5.75;100.00;98255.69;5490843;25;20479;-74
2024/04/19 00:06:31;;;;;;;3.70;1.80;;;4.90;99.90;;;5.75;100.00;98259.09;5491824;25;21347;-74
2024/04/19 00:09:01;;;;;;;1.50;1.40;;;4.80;99.90;;;5.74;100.00;98257.47;5487156;25;20903;-74
2024/04/19 00:11:32;;;;;;;1.63;1.23;;;4.90;99.90;;;5.72;100.00;98253.41;5489348;25;20467;-74
2024/04/19 00:14:02;;;;;;;2.30;1.90;;;4.80;99.90;;;5.69;100.00;98253.72;5487487;25;20527;-74
2024/04/19 00:16:29;;;;;;;1.97;1.53;;;4.80;99.90;;;5.71;100.00;98244.00;5490120;26;20474;-74
2024/04/19 00:19:00;;;;;;;3.80;1.70;;;4.90;99.90;;;5.74;100.00;98246.28;5490855;25;20532;-74
2024/04/19 00:21:27;;;;;;;1.90;1.37;;;4.90;99.90;;;5.75;100.00;98240.13;5488111;25;21127;-74
2024/04/19 00:23:57;;;;;;;3.50;1.67;;;4.90;99.90;;;5.72;100.00;98236.06;5488799;26;20521;-74
2024/04/19 00:26:25;;;;;;;1.63;1.40;;;4.90;99.90;;;5.61;100.00;98233.72;5491051;26;20538;-74
2024/04/19 00:28:58;;;;;;;2.70;1.40;;;4.80;99.90;;;5.62;100.00;98230.16;5490930;26;20476;-74
2024/04/19 00:31:25;;;;;;;2.07;1.30;;;4.80;99.90;;;5.64;100.00;98222.22;5490062;26;20525;-74
2024/04/19 00:33:55;;;;;;;4.93;1.67;;;4.80;99.90;;;5.66;100.00;98217.69;5489207;26;20550;-73
2024/04/19 00:36:23;;;;;;;2.30;1.67;;;4.80;99.90;;;5.58;100.00;98218.47;5488965;26;20768;-74
2024/04/19 00:38:54;;;;;;;3.40;1.50;;;4.70;99.90;;;5.68;100.00;98223.53;5488812;26;20480;-74
2024/04/19 00:41:25;;;;;;;2.67;1.57;;;4.80;99.90;;;5.70;100.00;98213.81;5487612;26;21234;-73
2024/04/19 00:43:55;;;;;;;4.43;1.20;;;4.80;99.90;;;5.76;100.00;98213.22;5488935;26;20537;-73
2024/04/19 00:46:25;;;;;;;3.27;1.57;;;4.90;99.90;;;5.73;100.00;98208.31;5488166;26;20932;-74
2024/04/19 00:48:53;;;;;;;1.50;1.10;;;4.80;99.90;;;5.75;100.00;98209.00;5489274;26;20482;-73
2024/04/19 00:51:24;;;;;;;1.87;1.30;;;4.90;99.90;;;5.77;100.00;98196.66;5487252;26;20545;-73
2024/04/19 00:53:52;;;;;;;2.63;1.50;;;4.90;99.90;;;5.74;100.00;98208.19;5490815;26;20538;-73
2024/04/19 00:56:24;;;;;;;5.20;1.40;;;4.90;99.90;;;5.71;100.00;98202.47;5487209;26;20512;-74
2024/04/19 00:58:55;;;;;;;4.93;1.33;;;4.90;99.90;;;5.70;100.00;98200.84;5483511;26;20495;-74
2024/04/19 01:01:26;;;;;;;4.20;1.70;;;4.90;99.90;;;5.75;100.00;98198.63;5489643;25;20588;-74
2024/04/19 01:03:55;;;;;;;1.73;1.40;;;4.90;99.90;;;5.75;100.00;98189.06;5487659;26;20468;-74
2024/04/19 01:06:26;;;;;;;2.87;1.30;;;4.90;99.90;;;5.72;100.00;98189.38;5489384;26;20596;-73
2024/04/19 01:08:53;;;;;;;2.23;1.40;;;4.90;99.90;;;5.73;100.00;98184.97;5486559;25;20550;-74
2024/04/19 01:11:25;;;;;;;5.00;1.37;;;4.90;99.90;;;5.75;100.00;98175.28;5485748;26;20484;-74
2024/04/19 01:13:55;;;;;;;2.10;1.40;;;4.90;99.90;;;5.78;100.00;98177.56;5486999;26;20783;-74
2024/04/19 01:16:26;;;;;;;1.63;1.20;;;4.90;99.90;;;5.78;100.00;98172.38;5485611;26;20493;-74
2024/04/19 01:18:53;;;;;;;3.20;1.47;;;5.00;99.90;;;5.75;100.00;98170.09;5486359;26;20487;-74
2024/04/19 01:21:27;;;;;;;6.17;1.73;;;4.80;99.90;;;5.80;100.00;98166.03;5489703;25;20458;-74
2024/04/19 01:24:04;;;;;;;1.50;1.23;;;5.00;99.90;;;5.80;100.00;98168.63;5484189;26;20478;-74
2024/04/19 01:26:37;;;;;;;1.97;1.43;;;5.00;99.90;;;5.78;100.00;98170.59;5485431;26;20937;-73
2024/04/19 01:29:05;;;;;;;2.47;1.40;;;5.00;99.90;;;5.79;100.00;98163.63;5488410;26;20477;-73
2024/04/19 01:31:35;;;;;;;3.30;1.37;;;4.90;99.90;;;5.81;100.00;98152.13;5490194;26;20487;-73
2024/04/19 01:34:02;;;;;;;4.70;1.80;;;5.00;99.90;;;5.87;100.00;98145.50;5489739;26;20491;-73
2024/04/19 01:36:32;;;;;;;2.80;1.27;;;5.20;99.90;;;5.87;100.00;98140.31;5488462;26;20888;-74
2024/04/19 01:39:00;;;;;;;2.97;1.70;;;5.10;99.90;;;5.86;100.00;98141.31;5490153;25;20535;-74
2024/04/19 01:41:31;;;;;;;4.30;1.53;;;5.00;99.90;;;5.89;100.00;98136.63;5487345;25;20509;-74
2024/04/19 01:44:01;;;;;;;3.50;1.67;;;5.10;99.90;;;5.89;100.00;98139.22;5487075;26;20478;-74
2024/04/19 01:46:31;;;;;;;1.63;1.50;;;5.10;99.90;;;5.91;100.00;98126.06;5486444;25;20893;-74
2024/04/19 01:48:59;;;;;;;1.60;1.40;;;5.10;99.90;;;5.92;100.00;98112.97;5489453;26;20472;-73
2024/04/19 01:51:29;;;;;;;1.53;1.27;;;5.10;99.90;;;5.87;100.00;98117.78;5489736;26;21068;-74
2024/04/19 01:53:57;;;;;;;1.73;1.23;;;5.00;99.90;;;5.95;100.00;98114.41;5486135;26;20572;-73
2024/04/19 01:56:27;;;;;;;3.30;1.30;;;5.10;99.90;;;5.95;100.00;98106.63;5486241;26;20484;-74
2024/04/19 01:58:56;;;;;;;4.17;1.90;;;5.10;99.90;;;6.00;100.00;98101.81;5487535;26;20530;-73
2024/04/19 02:01:29;;;;;;;3.83;2.80;;;5.20;99.90;;;6.03;100.00;98104.91;5487995;26;20546;-73
2024/04/19 02:03:56;;;;;;;2.50;1.60;;;5.20;99.90;;;6.04;100.00;98110.88;5490496;25;20491;-74
2024/04/19 02:06:27;;;;;;;8.93;1.70;;;5.20;99.90;;;6.03;100.00;98110.09;5484984;26;20476;-74
2024/04/19 02:08:54;;;;;;;1.30;1.20;;;5.20;99.90;;;6.04;100.00;98110.88;5484598;26;20811;-74
2024/04/19 02:11:25;;;;;;;3.10;1.53;;;5.20;99.90;;;6.10;100.00;98110.28;5484650;25;21125;-74
2024/04/19 02:13:52;;;;;;;1.93;1.47;;;5.30;99.90;;;6.08;100.00;98109.59;5486070;26;20462;-73
2024/04/19 02:16:22;;;;;;;3.43;1.30;;;5.20;99.90;;;6.14;100.00;98115.97;5485392;26;20842;-74
2024/04/19 02:18:53;;;;;;;4.00;1.50;;;5.30;99.90;;;6.17;100.00;98113.06;5486026;26;20489;-74
2024/04/19 02:21:27;;;;;;;5.60;1.83;;;5.30;99.90;;;6.18;100.00;98107.69;5485973;26;20552;-74
2024/04/19 02:23:58;;;;;;;2.23;1.70;;;5.30;99.90;;;6.21;100.00;98104.78;5486709;26;20526;-74
2024/04/19 02:26:25;;;;;;;5.23;1.80;;;5.40;99.90;;;6.27;100.00;98092.97;5489628;25;20592;-74
2024/04/19 02:31:41;;;;;;;1.70;1.60;;;5.50;99.90;;;6.35;100.00;98088.56;5492362;26;20467;-73
2024/04/19 02:34:14;;;;;;;5.20;1.70;;;5.60;99.90;;;6.36;100.00;98074.63;5491744;25;20590;-74
2024/04/19 02:36:44;;;;;;;5.53;2.23;;;5.70;99.90;;;6.39;100.00;98069.13;5488681;26;21123;-74
2024/04/19 02:39:15;;;;;;;2.87;2.67;;;5.70;99.90;;;6.40;100.00;98067.34;5487307;26;20475;-74
2024/04/19 02:41:45;;;;;;;2.50;2.30;;;5.80;99.90;;;6.41;100.00;98062.00;5490814;26;20486;-74
2024/04/19 02:44:12;;;;;;;2.40;2.10;;;5.80;99.90;;;6.43;100.00;98051.44;5489650;26;20538;-74
2024/04/19 02:46:43;;;;;;;2.40;2.20;;;5.90;99.90;;;6.49;100.00;98056.78;5486531;26;20555;-74
2024/04/19 02:49:15;;;;;;;5.80;2.47;;;5.90;99.90;;;6.55;100.00;98056.16;5492140;26;20475;-74
2024/04/19 02:51:46;;;;;;;2.70;2.50;;;5.90;99.90;;;6.57;100.00;98049.00;5491278;26;20578;-74
2024/04/19 02:54:16;;;;;;;3.63;2.53;;;6.00;99.90;;;6.63;100.00;98062.34;5481766;26;20536;-78
2024/04/19 02:56:46;;;;;;;17.13;8.93;;;6.00;99.90;;;6.64;100.00;98063.94;5486136;26;20497;-74
2024/04/19 02:59:17;;;;;;;5.83;3.03;;;6.00;99.90;;;6.72;100.00;98069.16;5481153;25;20484;-74
2024/04/19 03:01:47;;;;;;;2.40;2.20;;;6.00;99.90;;;6.72;100.00;98069.16;5487292;25;20481;-74
2024/04/19 03:04:20;;;;;;;11.03;6.50;;;6.10;99.90;;;6.72;100.00;98061.34;5485009;26;20632;-78
2024/04/19 03:06:50;;;;;;;5.67;3.77;;;6.10;99.90;;;6.68;100.00;98044.47;5490732;26;21090;-75
2024/04/19 03:09:20;;;;;;;3.40;2.50;;;6.10;99.90;;;6.71;100.00;98051.94;5482139;26;20902;-75
2024/04/19 03:11:50;;;;;;;4.60;2.80;;;6.10;99.90;;;6.72;100.00;98050.97;5492961;26;20916;-75
2024/04/19 03:14:26;;;;;;;2.53;2.30;;;6.10;99.90;;;6.72;100.00;98056.97;5491225;26;20837;-75
2024/04/19 03:16:57;;;;;;;3.83;2.37;;;6.10;99.90;;;6.72;100.00;98048.38;5489559;26;20536;-75
2024/04/19 03:19:31;;;;;;;3.10;2.30;;;6.10;99.90;;;6.73;100.00;98035.22;5491416;26;21063;-75
2024/04/19 03:22:01;;;;;;;4.00;3.00;;;6.00;99.90;;;6.76;100.00;98034.91;5489534;26;20495;-75
2024/04/19 03:24:31;;;;;;;6.57;2.40;;;6.10;99.90;;;6.78;100.00;98039.91;5492695;26;20923;-75
2024/04/19 03:27:01;;;;;;;4.93;2.73;;;6.10;99.90;;;6.79;100.00;98038.94;5488354;26;20517;-75
2024/04/19 03:29:31;;;;;;;9.90;2.93;;;6.10;99.90;;;6.78;100.00;98038.13;5488745;26;20481;-75
2024/04/19 03:32:01;;;;;;;7.23;2.60;;;6.10;99.90;;;6.79;100.00;98029.38;5488934;25;20547;-75
2024/04/19 03:34:34;;;;;;;6.40;2.90;;;6.10;99.90;;;6.78;100.00;98021.72;5488250;26;20597;-75
2024/04/19 03:37:05;;;;;;;3.50;2.80;;;6.10;99.90;;;6.69;100.00;98027.91;5489899;25;20480;-75
2024/04/19 03:39:35;;;;;;;4.60;2.73;;;6.10;99.90;;;6.66;100.00;98028.25;5491117;26;20533;-75
2024/04/19 03:42:10;;;;;;;4.33;2.57;;;6.00;99.90;;;6.61;100.00;98020.91;5491360;25;21143;-75
2024/04/19 03:47:27;;;;;;;6.83;4.40;;;6.00;99.90;;;6.58;100.00;98016.06;5492259;26;21124;-75
2024/04/19 03:50:00;;;;;;;4.67;3.30;;;6.00;99.90;;;6.47;100.00;98011.19;5494944;26;20523;-76
2024/04/19 03:52:30;;;;;;;11.93;3.40;;;5.90;99.90;;;6.42;100.00;98011.66;5495932;25;20536;-76
2024/04/19 03:55:00;;;;;;;3.43;3.00;;;5.80;99.90;;;6.36;100.00;98007.13;5494063;26;21032;-76
2024/04/19 03:57:31;;;;;;;3.30;3.00;;;5.70;99.90;;;6.35;100.00;98000.28;5496793;26;20475;-75
2024/04/19 04:00:01;;;;;;;4.60;3.33;;;5.70;99.90;;;6.37;100.00;98005.34;5493104;25;20477;-75
2024/04/19 04:02:31;;;;;;;2.90;2.60;;;5.70;99.90;;;6.30;100.00;97989.59;5497470;26;20649;-76
2024/04/19 04:05:04;;;;;;;3.20;2.90;;;5.70;99.90;;;6.34;100.00;97983.09;5497895;26;20558;-76
2024/04/19 04:07:34;;;;;;;2.60;2.40;;;5.70;99.90;;;6.35;100.00;97974.31;5492073;26;20468;-75
2024/04/19 04:10:05;;;;;;;10.17;2.97;;;5.70;99.90;;;6.36;100.00;97970.75;5491326;26;20570;-75
2024/04/19 04:12:35;;;;;;;3.57;2.97;;;5.70;99.90;;;6.35;100.00;97971.72;5495387;26;20526;-81
2024/04/19 04:15:07;;;;;;;4.20;3.20;;;5.70;99.90;;;6.35;100.00;97958.75;5496463;26;20470;-75
2024/04/19 04:17:37;;;;;;;6.07;2.90;;;5.70;99.90;;;6.32;100.00;97963.44;5495386;26;20613;-75
2024/04/19 04:20:11;;;;;;;6.50;2.73;;;5.80;99.90;;;6.33;100.00;97963.28;5492537;25;20475;-75
2024/04/19 04:22:41;;;;;;;4.10;2.53;;;5.70;99.90;;;6.12;100.00;97962.13;5493245;26;20492;-75
2024/04/19 04:25:11;;;;;;;3.23;2.57;;;5.60;99.90;;;6.18;100.00;97958.94;5492145;26;20537;-75
2024/04/19 04:27:41;;;;;;;2.43;2.00;;;5.60;99.90;;;6.13;100.00;97954.22;5495428;25;21825;-75
2024/04/19 04:30:12;;;;;;;2.20;2.00;;;5.60;99.90;;;6.14;100.00;97955.03;5494987;26;20532;-75
2024/04/19 04:32:42;;;;;;;10.87;6.77;;;5.50;99.90;;;6.03;100.00;97949.19;5493742;26;20462;-79
2024/04/19 04:35:15;;;;;;;2.50;2.30;;;5.50;99.90;;;5.95;100.00;97948.34;5491146;25;20471;-75
2024/04/19 04:37:45;;;;;;;2.83;2.40;;;5.50;99.90;;;6.03;100.00;97948.38;5492805;25;20593;-75
2024/04/19 04:40:16;;;;;;;3.27;2.57;;;5.50;99.90;;;6.02;100.00;97937.16;5491407;26;21078;-75
2024/04/19 04:42:46;;;;;;;2.20;2.00;;;5.40;99.90;;;6.05;100.00;97926.44;5496141;26;20803;-75
2024/04/19 04:45:16;;;;;;;2.40;2.10;;;5.40;99.90;;;5.98;100.00;97929.84;5497922;26;21187;-75
2024/04/19 04:47:47;;;;;;;3.17;2.60;;;5.40;99.90;;;5.95;100.00;97927.56;5496616;26;20499;-75
2024/04/19 04:50:23;;;;;;;2.70;2.23;;;5.30;99.90;;;5.99;100.00;97929.69;5497115;26;20468;-75
2024/04/19 04:52:56;;;;;;;5.97;2.40;;;5.30;99.90;;;5.84;100.00;97917.47;5496498;26;20554;-75
2024/04/19 04:55:26;;;;;;;2.50;1.80;;;5.40;99.90;;;5.83;100.00;97913.28;5501552;26;20549;-75
2024/04/19 04:57:56;;;;;;;2.43;2.10;;;5.20;99.90;;;5.89;100.00;97923.03;5494308;26;20579;-75
2024/04/19 05:00:28;;;;;;;1.93;1.70;;;5.30;99.90;;;5.80;100.00;97918.75;5495590;26;20560;-76
2024/04/19 05:02:59;;;;;;;3.23;2.33;;;5.30;99.90;;;5.78;100.00;97918.13;5493844;26;20478;-76
2024/04/19 05:05:30;;;;;;;3.20;2.50;;;5.10;99.90;;;5.81;100.00;97915.22;5499184;26;21041;-75
2024/04/19 05:08:00;;;;;;;4.13;3.27;;;5.20;99.90;;;5.72;100.00;97905.81;5497829;25;20632;-76
2024/04/19 05:10:31;;;;;;;2.83;2.60;;;5.10;99.90;;;5.78;100.00;97907.75;5500268;26;20939;-75
2024/04/19 05:13:01;;;;;;;4.17;2.43;;;5.10;99.90;;;5.86;100.00;97894.81;5492676;26;20468;-75
2024/04/19 05:15:31;;;;;;;3.17;2.37;;;5.20;99.90;;;5.76;100.00;97888.94;5498322;26;21153;-76
2024/04/19 05:18:02;;;;;;;2.80;2.60;;;5.10;99.90;;;5.74;100.00;97886.50;5489403;26;20596;-76
2024/04/19 05:20:35;;;;;;;2.80;2.57;;;5.20;99.90;;;5.62;100.00;97874.81;5497268;26;20528;-75
2024/04/19 05:23:06;;;;;;;4.67;2.77;;;5.10;99.90;;;5.59;100.00;97864.75;5495704;26;20922;-76
2024/04/19 05:25:39;;;;;;;3.37;2.93;;;5.00;99.90;;;5.63;100.00;97857.47;5495952;26;20567;-75
2024/04/19 05:28:09;;;;;;;3.03;2.73;;;4.90;99.90;;;5.68;100.00;97855.22;5494838;25;20493;-75
2024/04/19 05:30:39;;;;;;;7.53;3.03;;;5.00;99.90;;;5.76;100.00;97850.03;5493142;26;20562;-75
2024/04/19 05:33:10;;;;;;;3.83;3.10;;;5.10;99.90;;;5.74;100.00;97844.19;5496660;26;20515;-75
2024/04/19 05:35:44;;;;;;;3.40;3.00;;;5.20;99.90;;;5.73;100.00;97839.97;5492830;26;20478;-75
2024/04/19 05:38:14;;;;;;;3.07;2.77;;;5.20;99.90;;;5.79;100.00;97840.16;5494522;26;20473;-75
2024/04/19 05:40:44;;;;;;;3.50;2.63;;;5.30;99.90;;;5.70;100.00;97843.69;5491317;26;20476;-75
2024/04/19 05:43:14;;;;;;;3.33;2.37;;;5.00;99.90;;;5.69;100.00;97834.31;5492679;26;20544;-76
2024/04/19 05:45:45;;;;;;;6.00;3.20;;;5.10;99.90;;;5.72;100.00;97839.16;5498421;26;21216;-75
2024/04/19 05:48:16;;;;;;;4.30;3.10;;;5.20;99.90;;;5.76;100.00;97826.69;5494725;26;20474;-76
2024/04/19 05:50:53;;;;;;;3.17;2.87;;;5.20;99.90;;;5.80;100.00;97823.59;5495065;26;20479;-76
2024/04/19 05:53:24;;;;;;;3.50;3.07;;;5.20;99.90;;;5.81;100.00;97819.22;5494012;26;20526;-75
2024/04/19 05:55:54;;;;;;;7.80;2.93;;;5.20;99.90;;;5.86;100.00;97820.41;5493729;26;20558;-75
2024/04/19 05:58:24;;;;;;;3.83;3.10;;;5.20;99.90;;;5.89;100.00;97807.09;5494144;26;20488;-76
2024/04/19 06:00:55;;;;;;;4.10;2.90;;;5.40;99.90;;;5.89;100.00;97808.88;5496588;26;21022;-76
2024/04/19 06:03:25;;;;;;;3.63;3.00;;;5.30;99.90;;;5.92;100.00;97795.56;5497183;26;20464;-75
2024/04/19 06:05:58;;;;;;;7.33;3.43;;;5.40;99.90;;;5.89;100.00;97798.50;5497289;26;20488;-75
2024/04/19 06:08:28;;;;;;;4.03;3.10;;;5.30;99.90;;;5.93;100.00;97786.81;5494366;26;20525;-75
2024/04/19 06:10:58;;;;;;;4.60;3.40;;;5.30;99.90;;;5.96;100.00;97773.50;5496903;26;20486;-75
2024/04/19 06:13:29;;;;;;;4.90;3.53;;;5.30;99.90;;;6.00;100.00;97777.41;5498147;26;20517;-76
2024/04/19 06:15:59;;;;;;;5.77;3.97;;;5.40;99.90;;;6.03;100.00;97769.28;5493463;26;20472;-75
2024/04/19 06:18:29;;;;;;;4.70;3.10;;;5.50;99.90;;;6.01;100.00;97771.22;5496184;26;20475;-76
2024/04/19 06:21:03;;;;;;;7.57;4.00;;;5.30;99.90;;;6.08;100.00;97754.00;5496359;26;20486;-76
2024/04/19 06:23:33;;;;;;;5.50;4.10;;;5.50;99.90;;;6.15;100.00;97759.34;5498437;26;20476;-76
2024/04/19 06:26:05;;;;;;;9.93;4.23;;;5.50;99.90;;;6.15;100.00;97754.97;5496201;26;20485;-76
2024/04/19 06:28:38;;;;;;;5.03;3.77;;;5.60;99.90;;;6.15;100.00;97748.97;5500553;26;20591;-75
2024/04/19 06:31:12;;;;;;;9.00;4.13;;;5.60;99.90;;;6.08;100.00;97751.41;5500000;26;20470;-75
2024/04/19 06:33:43;;;;;;;4.23;3.67;;;5.50;99.90;;;6.14;100.00;97749.97;5500999;25;20516;-76
2024/04/19 06:36:16;;;;;;;8.63;4.33;;;5.50;99.90;;;6.16;100.00;97740.22;5497538;26;20566;-75
2024/04/19 06:38:44;;;;;;;7.03;3.77;;;5.60;99.90;;;6.18;100.00;97728.69;5496075;26;20533;-76
2024/04/19 06:41:14;;;;;;;4.00;3.60;;;5.60;99.90;;;6.22;100.00;97727.38;5498738;26;20597;-76
2024/04/19 06:43:44;;;;;;;6.80;3.60;;;5.60;99.90;;;6.14;100.00;97722.22;5500087;26;20482;-75
2024/04/19 06:46:16;;;;;;;6.00;3.93;;;5.60;99.90;;;6.21;100.00;97717.97;5498940;26;21088;-75
2024/04/19 06:48:46;;;;;;;4.37;3.53;;;5.60;99.90;;;6.22;100.00;97729.16;5496382;26;20488;-75
2024/04/19 06:51:19;;;;;;;7.37;3.77;;;5.60;99.90;;;6.24;100.00;97730.63;5497987;25;20584;-75
2024/04/19 06:53:50;;;;;;;3.90;3.50;;;5.70;99.90;;;6.24;100.00;97728.03;5499603;26;20531;-76
2024/04/19 06:56:20;;;;;;;4.93;3.57;;;5.60;99.90;;;6.22;100.00;97719.56;5495476;25;20539;-75
2024/04/19 06:58:52;;;;;;;4.90;3.77;;;5.70;99.90;;;6.28;100.00;97713.72;5500291;26;20634;-76
2024/04/19 07:01:23;;;;;;;6.83;3.67;;;5.60;99.90;;;6.28;100.00;97713.72;5497649;26;20474;-75
2024/04/19 07:03:54;;;;;;;9.50;4.27;;;5.70;99.90;;;6.26;100.00;97710.47;5498110;26;20478;-75
2024/04/19 07:06:27;;;;;;;5.63;3.97;;;5.70;99.90;;;6.22;100.00;97703.19;5499883;26;20538;-76
2024/04/19 07:09:13;;;;;;;5.63;4.17;;;5.70;99.90;;;6.25;100.00;97697.69;5494184;26;20491;-76
2024/04/19 07:11:44;;;;;;;4.10;3.40;;;5.70;99.90;;;6.23;100.00;97704.81;5498386;26;20464;-76
2024/04/19 07:14:14;;;;;;;5.73;3.80;;;5.60;99.90;;;6.23;100.00;97690.06;5498052;25;20465;-75
2024/04/19 07:16:45;;;;;;;4.33;3.50;;;5.60;99.90;;;6.27;100.00;97678.34;5493322;26;20551;-76
2024/04/19 07:19:13;;;;;;;6.70;3.40;;;5.70;99.90;;;6.27;100.00;97685.34;5498122;25;20479;-75
2024/04/19 07:21:46;;;;;;;4.83;3.70;;;5.60;99.90;;;6.32;100.00;97678.66;5494724;26;20596;-75
2024/04/19 07:24:16;;;;;;;4.83;3.40;;;5.70;99.90;;;6.35;100.00;97682.72;5498076;26;20471;-76
2024/04/19 07:26:47;;;;;;;5.00;3.80;;;5.70;99.90;;;6.30;100.00;97672.00;5498782;26;20604;-76
2024/04/19 07:29:17;;;;;;;5.50;3.87;;;5.60;99.90;;;6.31;100.00;97673.63;5494949;25;21069;-75
2024/04/19 07:31:47;;;;;;;4.10;3.50;;;5.70;99.90;;;6.36;100.00;97674.75;5497252;26;21024;-75
2024/04/19 07:34:18;;;;;;;10.10;3.60;;;5.70;99.90;;;6.37;100.00;97667.75;5498882;26;20484;-75
2024/04/19 07:36:51;;;;;;;4.60;3.50;;;5.80;99.90;;;6.33;100.00;97656.91;5496862;26;21016;-75
2024/04/19 07:39:21;;;;;;;3.90;3.30;;;5.70;99.90;;;6.37;100.00;97663.38;5498813;26;20544;-75
2024/04/19 07:41:51;;;;;;;4.93;3.60;;;5.70;99.90;;;6.41;100.00;97646.50;5496652;25;20582;-75
2024/04/19 07:44:22;;;;;;;4.20;3.43;;;5.80;99.90;;;6.44;100.00;97655.72;5499371;25;20482;-75
2024/04/19 07:46:50;;;;;;;3.70;3.00;;;5.90;99.90;;;6.48;100.00;97657.81;5496078;26;20543;-75
2024/04/19 07:49:20;;;;;;;3.83;3.03;;;5.90;99.90;;;6.42;100.00;97658.47;5496256;26;20594;-75
2024/04/19 07:51:53;;;;;;;3.73;3.07;;;5.80;99.90;;;6.34;100.00;97655.94;5498155;26;20488;-75
2024/04/19 07:54:23;;;;;;;2.53;2.33;;;5.70;99.90;;;6.34;100.00;97642.13;5496253;26;20476;-75
2024/04/19 07:56:54;;;;;;;3.20;2.50;;;5.70;99.90;;;6.37;100.00;97637.41;5495536;26;21079;-75
2024/04/19 07:59:24;;;;;;;2.97;2.53;;;5.70;99.90;;;6.37;100.00;97647.00;5495017;25;20484;-75
2024/04/19 08:01:54;;;;;;;2.70;2.27;;;5.70;99.90;;;6.31;100.00;97640.69;5499697;26;20518;-75
2024/04/19 08:04:25;;;;;;;2.30;2.10;;;5.70;99.90;;;6.27;100.00;97631.63;5496164;25;20473;-75
2024/04/19 08:06:58;;;;;;;2.40;2.20;;;5.60;99.90;;;6.25;100.00;97638.75;5493713;26;20524;-75
2024/04/19 08:09:29;;;;;;;2.63;2.40;;;5.70;99.90;;;6.33;100.00;97633.53;5496711;26;20525;-75
2024/04/19 08:11:59;;;;;;;2.40;2.10;;;5.70;99.90;;;6.22;100.00;97626.13;5496997;25;20570;-75
2024/04/19 08:14:30;;;;;;;2.20;2.00;;;5.60;99.90;;;6.31;100.00;97629.50;5497330;26;20483;-75
2024/04/19 08:17:00;;;;;;;3.23;2.90;;;5.70;99.90;;;6.30;100.00;97618.31;5494247;26;20526;-75
2024/04/19 08:19:31;;;;;;;3.40;2.60;;;5.60;99.90;;;6.29;100.00;97610.66;5494815;25;20483;-76
2024/04/19 08:22:04;;;;;;;2.90;2.17;;;5.70;99.90;;;6.32;100.00;97611.13;5497210;25;20488;-75
2024/04/19 08:24:34;;;;;;;3.33;2.27;;;5.80;99.90;;;6.30;100.00;97609.69;5494073;26;20497;-76
2024/04/19 08:27:05;;;;;;;2.30;2.10;;;5.60;99.90;;;6.26;100.00;97617.03;5500723;26;20488;-75
2024/04/19 08:29:35;;;;;;;4.23;2.70;;;5.70;99.90;;;6.34;100.00;97608.38;5496462;26;20830;-75
2024/04/19 08:32:09;;;;;;;3.10;2.07;;;5.70;99.90;;;6.34;100.00;97608.38;5499909;25;20487;-76
2024/04/19 08:34:37;;;;;;;5.00;2.53;;;5.80;99.90;;;6.38;100.00;97605.28;5496284;26;20589;-75
2024/04/19 08:37:10;;;;;;;2.30;2.10;;;5.80;99.90;;;6.45;100.00;97602.81;5495050;26;20480;-76
2024/04/19 08:39:40;;;;;;;2.70;2.50;;;5.80;99.90;;;6.46;100.00;97594.00;5496733;26;20582;-76
2024/04/19 08:42:19;;;;;;;2.47;2.27;;;5.80;99.90;;;6.50;100.00;97601.31;5498513;26;20561;-75
2024/04/19 08:44:52;;;;;;;3.27;2.30;;;5.80;99.90;;;6.47;100.00;97593.03;5496450;26;20533;-77
2024/04/19 08:47:22;;;;;;;2.10;1.90;;;5.90;99.90;;;6.48;100.00;97586.88;5498455;26;20483;-75
2024/04/19 08:49:57;;;;;;;2.70;2.17;;;5.90;99.90;;;6.51;100.00;97579.56;5497511;26;20476;-76
2024/04/19 08:52:31;;;;;;;4.13;2.10;;;5.90;99.90;;;6.52;100.00;97575.97;5496027;26;20588;-75
2024/04/19 08:55:23;;;;;;;2.40;2.20;;;5.90;99.90;;;6.43;100.00;97574.41;5497530;26;20867;-75
2024/04/19 08:57:54;;;;;;;4.90;2.33;;;5.90;99.90;;;6.42;100.00;97570.19;5496180;26;20564;-76
2024/04/19 09:00:25;;;;;;;1.80;1.70;;;5.90;99.90;;;6.48;100.00;97579.09;5491999;25;20554;-75
2024/04/19 09:02:56;;;;;;;4.20;2.40;;;5.90;99.90;;;6.49;100.00;97576.31;5496824;26;20478;-76
2024/04/19 09:05:26;;;;;;;2.37;2.17;;;5.90;99.90;;;6.56;100.00;97568.63;5498330;26;20476;-76
2024/04/19 09:07:59;;;;;;;2.70;2.10;;;6.00;99.90;;;6.55;100.00;97565.25;5497985;26;20472;-76
2024/04/19 09:10:30;;;;;;;3.60;2.70;;;6.00;99.90;;;6.59;100.00;97560.50;5493254;26;20472;-75
2024/04/19 09:13:01;;;;;;;2.43;2.23;;;6.00;99.90;;;6.60;100.00;97562.09;5495413;26;20475;-75
2024/04/19 09:15:32;;;;;;;1.80;1.70;;;5.90;99.90;;;6.59;100.00;97561.28;5497379;26;20491;-75
2024/04/19 09:18:04;;;;;;;2.20;2.00;;;6.00;99.90;;;6.56;100.00;97566.03;5495128;26;20487;-75
2024/04/19 09:20:35;;;;;;;2.33;1.93;;;5.90;99.90;;;6.59;100.00;97553.50;5496007;26;20483;-76
2024/04/19 09:23:08;;;;;;;2.50;2.30;;;5.90;99.90;;;6.68;100.00;97556.03;5494460;26;20477;-75
2024/04/19 09:25:39;;;;;;;2.03;1.83;;;6.00;99.90;;;6.68;100.00;97550.84;5499844;25;20479;-76
2024/04/19 09:28:12;;;;;;;1.60;1.50;;;6.10;99.90;;;6.61;100.00;97545.53;5493792;26;20481;-75
2024/04/19 09:30:43;;;;;;;2.40;2.17;;;5.90;99.90;;;6.66;100.00;97545.84;5494915;25;20480;-75
2024/04/19 09:33:19;;;;;;;2.20;2.00;;;6.00;99.90;;;6.69;100.00;97542.09;5497269;26;20891;-76
2024/04/19 09:35:54;;;;;;;2.40;2.20;;;6.00;99.90;;;6.77;100.00;97542.81;5497299;26;20521;-75
2024/04/19 09:38:28;;;;;;;2.20;2.00;;;6.10;99.90;;;6.80;100.00;97536.47;5493791;26;20461;-75
2024/04/19 09:41:02;;;;;;;2.00;1.80;;;6.10;99.90;;;6.84;100.00;97538.53;5492549;26;20479;-76
2024/04/19 09:43:38;;;;;;;7.30;1.83;;;6.20;99.90;;;6.86;100.00;97536.56;5495814;26;20480;-76
2024/04/19 09:46:10;;;;;;;2.17;1.97;;;6.10;99.90;;;6.87;100.00;97527.00;5497083;26;20485;-76
2024/04/19 09:48:47;;;;;;;2.50;2.13;;;6.10;99.90;;;6.90;100.00;97527.44;5495085;26;20536;-76
2024/04/19 09:51:18;;;;;;;2.20;2.00;;;6.20;99.90;;;6.86;100.00;97525.38;5492469;25;21493;-75
2024/04/19 09:53:55;;;;;;;2.20;1.90;;;6.20;99.90;;;6.95;100.00;97513.91;5493512;26;20549;-76
2024/04/19 09:56:40;;;;;;;3.13;2.30;;;6.30;99.90;;;6.97;100.00;97504.16;5497117;26;21030;-75
2024/04/19 09:59:12;;;;;;;5.13;2.23;;;6.30;99.90;;;6.97;100.00;97501.56;5492978;26;20561;-76
2024/04/19 10:01:42;;;;;;;2.60;1.83;;;6.30;99.90;;;6.99;100.00;97491.78;5491656;26;20485;-75
2024/04/19 10:04:14;;;;;;;1.97;1.87;;;6.40;99.90;;;7.05;100.00;97491.06;5494067;26;20489;-75
2024/04/19 10:06:46;;;;;;;3.27;2.00;;;6.40;99.90;;;7.06;100.00;97484.88;5495594;26;21787;-76
2024/04/19 10:09:21;;;;;;;2.60;2.20;;;6.40;99.90;;;7.07;100.00;97483.91;5494011;26;20549;-75
2024/04/19 10:11:53;;;;;;;2.63;2.17;;;6.40;99.90;;;7.10;100.00;97470.53;5493548;26;20516;-75
2024/04/19 10:14:29;;;;;;;2.30;1.97;;;6.50;99.90;;;7.10;100.00;97467.94;5495008;26;21483;-76
2024/04/19 10:16:59;;;;;;;2.90;2.60;;;6.40;99.90;;;7.15;100.00;97475.22;5492240;26;20532;-76
2024/04/19 10:19:33;;;;;;;3.07;2.30;;;6.50;99.90;;;7.14;100.00;97468.41;5492284;26;20549;-76
2024/04/19 10:22:23;;;;;;;3.10;1.80;;;6.50;99.90;;;7.18;100.00;97467.06;5491024;26;20494;-76
2024/04/19 10:25:04;;;;;;;2.00;1.90;;;6.50;99.90;;;7.19;100.00;97461.66;5497773;26;21189;-76
2024/04/19 10:27:36;;;;;;;2.40;2.10;;;6.50;99.90;;;7.21;100.00;97462.31;5493238;25;20583;-76
2024/04/19 10:30:11;;;;;;;3.13;1.90;;;6.50;99.90;;;7.28;100.00;97449.38;5497326;26;20478;-76
2024/04/19 10:32:54;;;;;;;2.40;2.10;;;6.50;99.90;;;7.33;100.00;97441.81;5495263;26;20875;-75
2024/04/19 10:35:25;;;;;;;2.20;2.00;;;6.60;99.90;;;7.37;100.00;97445.69;5494497;26;21258;-76
2024/04/19 10:37:57;;;;;;;2.57;2.17;;;6.60;99.90;;;7.40;100.00;97440.13;5496322;26;20478;-75
2024/04/19 10:40:30;;;;;;;2.00;1.80;;;6.70;99.90;;;7.47;100.00;97435.81;5492540;26;20595;-75
2024/04/19 10:43:05;;;;;;;1.77;1.67;;;6.70;99.90;;;7.48;100.00;97430.44;5495473;26;20497;-76
2024/04/19 10:45:36;;;;;;;2.10;1.73;;;6.80;99.90;;;7.51;100.00;97417.06;5495072;26;20535;-76
2024/04/19 10:48:08;;;;;;;1.97;1.77;;;6.90;99.90;;;7.56;100.00;97404.31;5498217;26;20499;-76